Terminal Aerodrome Forecast
Issued by NWS Sterling, VA

Home | Current Version | Previous Version | Text Only | Print | Product List | Glossary On
Versions: 1 2 3 4 5 6 7 8 9 10 11 12 13 14 15 16 17 18 19 20 21 22 23 24
000
FTUS41 KLWX 211100
TAFBWI
TAF
KBWI 211139Z 2112/2218 27005KT P6SM BKN100
     FM211800 27005KT 6SM -SHRA BKN060
     FM212100 32005KT 5SM -SHRA BKN035
     FM220600 35007KT P6SM OVC015
     FM221200 33013KT P6SM OVC015=

USA.gov is the U.S. government's official web portal to all federal, state and local government web resources and services.